sensor_id;sensor_type;location;lat;lon;timestamp;P1;durP1;ratioP1;P2;durP2;ratioP2
77078;SDS011;66004;55.096;38.760;2023-02-03T00:01:24;36.47;;;12.30;;
77078;SDS011;66004;55.096;38.760;2023-02-03T00:03:50;31.55;;;11.98;;
77078;SDS011;66004;55.096;38.760;2023-02-03T00:06:15;32.60;;;12.57;;
77078;SDS011;66004;55.096;38.760;2023-02-03T00:08:41;29.60;;;11.50;;
77078;SDS011;66004;55.096;38.760;2023-02-03T00:11:07;27.77;;;10.73;;
77078;SDS011;66004;55.096;38.760;2023-02-03T00:13:33;31.65;;;11.95;;
77078;SDS011;66004;55.096;38.760;2023-02-03T00:15:59;30.40;;;12.02;;
77078;SDS011;66004;55.096;38.760;2023-02-03T00:18:26;29.70;;;10.88;;
77078;SDS011;66004;55.096;38.760;2023-02-03T00:20:52;26.40;;;11.43;;
77078;SDS011;66004;55.096;38.760;2023-02-03T00:23:18;31.27;;;12.00;;
77078;SDS011;66004;55.096;38.760;2023-02-03T00:25:44;29.38;;;11.00;;
77078;SDS011;66004;55.096;38.760;2023-02-03T00:28:09;28.92;;;11.00;;
77078;SDS011;66004;55.096;38.760;2023-02-03T00:30:35;30.65;;;12.70;;
77078;SDS011;66004;55.096;38.760;2023-02-03T00:33:01;31.50;;;10.82;;
77078;SDS011;66004;55.096;38.760;2023-02-03T00:37:53;24.10;;;10.02;;
77078;SDS011;66004;55.096;38.760;2023-02-03T00:40:20;34.47;;;11.68;;
77078;SDS011;66004;55.096;38.760;2023-02-03T00:42:47;29.10;;;11.65;;
77078;SDS011;66004;55.096;38.760;2023-02-03T00:45:13;34.30;;;10.02;;
77078;SDS011;66004;55.096;38.760;2023-02-03T00:47:39;34.47;;;11.60;;
77078;SDS011;66004;55.096;38.760;2023-02-03T00:50:05;29.20;;;11.45;;
77078;SDS011;66004;55.096;38.760;2023-02-03T00:52:32;30.17;;;12.02;;
77078;SDS011;66004;55.096;38.760;2023-02-03T00:54:57;27.85;;;10.68;;
77078;SDS011;66004;55.096;38.760;2023-02-03T00:57:23;29.55;;;11.57;;
77078;SDS011;66004;55.096;38.760;2023-02-03T00:59:48;27.48;;;10.63;;
77078;SDS011;66004;55.096;38.760;2023-02-03T01:02:14;22.58;;;8.68;;
77078;SDS011;66004;55.096;38.760;2023-02-03T01:04:41;31.42;;;10.82;;
77078;SDS011;66004;55.096;38.760;2023-02-03T01:07:07;29.67;;;10.73;;
77078;SDS011;66004;55.096;38.760;2023-02-03T01:09:33;31.65;;;10.48;;
77078;SDS011;66004;55.096;38.760;2023-02-03T01:12:00;25.58;;;9.27;;
77078;SDS011;66004;55.096;38.760;2023-02-03T01:14:26;33.67;;;11.98;;
77078;SDS011;66004;55.096;38.760;2023-02-03T01:16:51;37.78;;;13.30;;
77078;SDS011;66004;55.096;38.760;2023-02-03T01:19:17;32.70;;;12.05;;
77078;SDS011;66004;55.096;38.760;2023-02-03T01:21:43;32.53;;;11.18;;
77078;SDS011;66004;55.096;38.760;2023-02-03T01:24:09;34.72;;;13.05;;
77078;SDS011;66004;55.096;38.760;2023-02-03T01:26:34;33.53;;;12.95;;
77078;SDS011;66004;55.096;38.760;2023-02-03T01:29:00;33.78;;;12.63;;
77078;SDS011;66004;55.096;38.760;2023-02-03T01:31:28;32.25;;;12.70;;
77078;SDS011;66004;55.096;38.760;2023-02-03T01:34:03;28.83;;;12.00;;
77078;SDS011;66004;55.096;38.760;2023-02-03T01:36:30;29.70;;;12.43;;
77078;SDS011;66004;55.096;38.760;2023-02-03T01:38:57;32.28;;;12.70;;
77078;SDS011;66004;55.096;38.760;2023-02-03T01:41:24;27.90;;;11.52;;
77078;SDS011;66004;55.096;38.760;2023-02-03T01:43:52;36.03;;;13.63;;
77078;SDS011;66004;55.096;38.760;2023-02-03T01:48:53;34.63;;;12.38;;
77078;SDS011;66004;55.096;38.760;2023-02-03T01:51:24;29.83;;;11.55;;
77078;SDS011;66004;55.096;38.760;2023-02-03T01:53:50;29.75;;;11.55;;
77078;SDS011;66004;55.096;38.760;2023-02-03T01:56:18;29.30;;;11.43;;
77078;SDS011;66004;55.096;38.760;2023-02-03T01:58:44;30.75;;;12.02;;
77078;SDS011;66004;55.096;38.760;2023-02-03T02:01:11;29.88;;;11.63;;
77078;SDS011;66004;55.096;38.760;2023-02-03T02:03:51;29.25;;;12.18;;
77078;SDS011;66004;55.096;38.760;2023-02-03T02:06:19;28.58;;;12.18;;
77078;SDS011;66004;55.096;38.760;2023-02-03T02:08:46;30.55;;;12.25;;
77078;SDS011;66004;55.096;38.760;2023-02-03T02:11:14;31.00;;;11.07;;
77078;SDS011;66004;55.096;38.760;2023-02-03T02:13:42;29.90;;;11.88;;
77078;SDS011;66004;55.096;38.760;2023-02-03T02:21:56;30.55;;;11.00;;
77078;SDS011;66004;55.096;38.760;2023-02-03T02:27:17;26.30;;;10.85;;
77078;SDS011;66004;55.096;38.760;2023-02-03T02:32:51;31.80;;;11.07;;
77078;SDS011;66004;55.096;38.760;2023-02-03T02:41:30;26.42;;;11.45;;
77078;SDS011;66004;55.096;38.760;2023-02-03T02:46:51;29.00;;;10.60;;
77078;SDS011;66004;55.096;38.760;2023-02-03T02:49:25;27.25;;;10.90;;
77078;SDS011;66004;55.096;38.760;2023-02-03T02:53:24;26.50;;;11.45;;
77078;SDS011;66004;55.096;38.760;2023-02-03T02:55:53;25.83;;;10.98;;
77078;SDS011;66004;55.096;38.760;2023-02-03T02:58:21;28.08;;;10.75;;
77078;SDS011;66004;55.096;38.760;2023-02-03T03:00:48;32.85;;;11.30;;
77078;SDS011;66004;55.096;38.760;2023-02-03T03:03:21;28.75;;;10.45;;
77078;SDS011;66004;55.096;38.760;2023-02-03T03:05:55;26.85;;;10.68;;
77078;SDS011;66004;55.096;38.760;2023-02-03T03:08:33;28.90;;;10.40;;
77078;SDS011;66004;55.096;38.760;2023-02-03T03:11:10;29.35;;;10.73;;
77078;SDS011;66004;55.096;38.760;2023-02-03T03:13:38;25.75;;;10.55;;
77078;SDS011;66004;55.096;38.760;2023-02-03T03:16:09;25.40;;;11.57;;
77078;SDS011;66004;55.096;38.760;2023-02-03T03:18:45;27.42;;;11.27;;
77078;SDS011;66004;55.096;38.760;2023-02-03T03:21:40;26.20;;;10.45;;
77078;SDS011;66004;55.096;38.760;2023-02-03T03:24:11;29.77;;;11.43;;
77078;SDS011;66004;55.096;38.760;2023-02-03T03:31:59;31.13;;;12.30;;
77078;SDS011;66004;55.096;38.760;2023-02-03T03:36:53;26.25;;;10.27;;
77078;SDS011;66004;55.096;38.760;2023-02-03T03:42:44;26.27;;;11.13;;
77078;SDS011;66004;55.096;38.760;2023-02-03T03:48:02;28.10;;;10.68;;
77078;SDS011;66004;55.096;38.760;2023-02-03T03:50:32;29.80;;;11.88;;
77078;SDS011;66004;55.096;38.760;2023-02-03T03:53:02;26.30;;;10.95;;
77078;SDS011;66004;55.096;38.760;2023-02-03T03:55:31;31.48;;;12.13;;
77078;SDS011;66004;55.096;38.760;2023-02-03T03:58:02;29.75;;;12.00;;
77078;SDS011;66004;55.096;38.760;2023-02-03T04:00:42;29.65;;;11.38;;
77078;SDS011;66004;55.096;38.760;2023-02-03T04:03:14;31.60;;;12.07;;
77078;SDS011;66004;55.096;38.760;2023-02-03T04:05:47;29.25;;;11.32;;
77078;SDS011;66004;55.096;38.760;2023-02-03T04:08:13;26.77;;;11.25;;
77078;SDS011;66004;55.096;38.760;2023-02-03T04:10:39;29.00;;;11.20;;
77078;SDS011;66004;55.096;38.760;2023-02-03T04:13:06;31.63;;;11.60;;
77078;SDS011;66004;55.096;38.760;2023-02-03T04:15:33;29.58;;;10.80;;
77078;SDS011;66004;55.096;38.760;2023-02-03T04:17:59;29.73;;;12.32;;
77078;SDS011;66004;55.096;38.760;2023-02-03T04:20:26;26.38;;;10.63;;
77078;SDS011;66004;55.096;38.760;2023-02-03T04:22:56;28.98;;;11.52;;
77078;SDS011;66004;55.096;38.760;2023-02-03T04:25:22;31.42;;;11.20;;
77078;SDS011;66004;55.096;38.760;2023-02-03T04:27:47;33.67;;;12.38;;
77078;SDS011;66004;55.096;38.760;2023-02-03T04:30:13;32.85;;;11.52;;
77078;SDS011;66004;55.096;38.760;2023-02-03T04:32:39;36.90;;;13.40;;
77078;SDS011;66004;55.096;38.760;2023-02-03T04:35:05;31.63;;;11.88;;
77078;SDS011;66004;55.096;38.760;2023-02-03T04:37:32;29.73;;;11.90;;
77078;SDS011;66004;55.096;38.760;2023-02-03T04:42:24;27.52;;;10.80;;
77078;SDS011;66004;55.096;38.760;2023-02-03T04:44:50;37.47;;;12.75;;
77078;SDS011;66004;55.096;38.760;2023-02-03T04:47:16;32.30;;;11.98;;
77078;SDS011;66004;55.096;38.760;2023-02-03T04:49:42;25.52;;;10.00;;
77078;SDS011;66004;55.096;38.760;2023-02-03T04:52:07;25.77;;;11.52;;
77078;SDS011;66004;55.096;38.760;2023-02-03T04:54:33;29.20;;;12.23;;
77078;SDS011;66004;55.096;38.760;2023-02-03T04:56:59;32.75;;;12.10;;
77078;SDS011;66004;55.096;38.760;2023-02-03T04:59:25;29.33;;;11.80;;
77078;SDS011;66004;55.096;38.760;2023-02-03T05:01:50;34.83;;;12.32;;
77078;SDS011;66004;55.096;38.760;2023-02-03T05:04:16;29.17;;;10.52;;
77078;SDS011;66004;55.096;38.760;2023-02-03T05:06:41;29.08;;;11.70;;
77078;SDS011;66004;55.096;38.760;2023-02-03T05:09:07;26.85;;;11.35;;
77078;SDS011;66004;55.096;38.760;2023-02-03T05:11:33;29.20;;;11.27;;
77078;SDS011;66004;55.096;38.760;2023-02-03T05:13:58;24.42;;;9.65;;
77078;SDS011;66004;55.096;38.760;2023-02-03T05:16:24;28.95;;;12.30;;
77078;SDS011;66004;55.096;38.760;2023-02-03T05:18:49;28.77;;;10.80;;
77078;SDS011;66004;55.096;38.760;2023-02-03T05:21:15;29.33;;;11.18;;
77078;SDS011;66004;55.096;38.760;2023-02-03T05:23:40;30.65;;;12.30;;
77078;SDS011;66004;55.096;38.760;2023-02-03T05:26:06;29.00;;;11.70;;
77078;SDS011;66004;55.096;38.760;2023-02-03T05:28:31;23.75;;;9.70;;
77078;SDS011;66004;55.096;38.760;2023-02-03T05:30:57;31.52;;;13.05;;
77078;SDS011;66004;55.096;38.760;2023-02-03T05:33:24;36.33;;;13.27;;
77078;SDS011;66004;55.096;38.760;2023-02-03T05:35:49;26.58;;;10.88;;
77078;SDS011;66004;55.096;38.760;2023-02-03T05:38:15;28.73;;;11.50;;
77078;SDS011;66004;55.096;38.760;2023-02-03T05:40:41;28.60;;;11.65;;
77078;SDS011;66004;55.096;38.760;2023-02-03T05:43:26;28.73;;;11.07;;
77078;SDS011;66004;55.096;38.760;2023-02-03T05:48:17;25.42;;;10.27;;
77078;SDS011;66004;55.096;38.760;2023-02-03T05:50:43;29.92;;;11.70;;
77078;SDS011;66004;55.096;38.760;2023-02-03T05:53:09;27.48;;;11.45;;
77078;SDS011;66004;55.096;38.760;2023-02-03T05:55:35;29.30;;;11.73;;
77078;SDS011;66004;55.096;38.760;2023-02-03T05:58:00;22.38;;;9.90;;
77078;SDS011;66004;55.096;38.760;2023-02-03T06:00:26;31.50;;;12.48;;
77078;SDS011;66004;55.096;38.760;2023-02-03T06:02:53;26.35;;;11.32;;
77078;SDS011;66004;55.096;38.760;2023-02-03T06:05:20;33.33;;;12.85;;
77078;SDS011;66004;55.096;38.760;2023-02-03T06:07:46;26.00;;;11.05;;
77078;SDS011;66004;55.096;38.760;2023-02-03T06:10:12;25.42;;;10.07;;
77078;SDS011;66004;55.096;38.760;2023-02-03T06:12:38;28.05;;;11.05;;
77078;SDS011;66004;55.096;38.760;2023-02-03T06:15:04;34.03;;;12.30;;
77078;SDS011;66004;55.096;38.760;2023-02-03T06:17:30;25.08;;;10.70;;
77078;SDS011;66004;55.096;38.760;2023-02-03T06:19:56;33.30;;;12.05;;
77078;SDS011;66004;55.096;38.760;2023-02-03T06:22:22;28.35;;;10.95;;
77078;SDS011;66004;55.096;38.760;2023-02-03T06:24:47;25.40;;;10.32;;
77078;SDS011;66004;55.096;38.760;2023-02-03T06:27:13;30.40;;;11.52;;
77078;SDS011;66004;55.096;38.760;2023-02-03T06:29:39;27.05;;;11.48;;
77078;SDS011;66004;55.096;38.760;2023-02-03T06:32:06;29.55;;;11.68;;
77078;SDS011;66004;55.096;38.760;2023-02-03T06:34:31;30.05;;;11.43;;
77078;SDS011;66004;55.096;38.760;2023-02-03T06:36:57;28.23;;;10.82;;
77078;SDS011;66004;55.096;38.760;2023-02-03T06:39:23;26.05;;;11.20;;
77078;SDS011;66004;55.096;38.760;2023-02-03T06:41:48;25.73;;;11.15;;
77078;SDS011;66004;55.096;38.760;2023-02-03T06:44:16;27.20;;;10.82;;
77078;SDS011;66004;55.096;38.760;2023-02-03T06:46:42;31.38;;;11.30;;
77078;SDS011;66004;55.096;38.760;2023-02-03T06:49:07;29.75;;;11.57;;
77078;SDS011;66004;55.096;38.760;2023-02-03T06:51:33;29.10;;;12.00;;
77078;SDS011;66004;55.096;38.760;2023-02-03T06:53:59;33.05;;;11.82;;
77078;SDS011;66004;55.096;38.760;2023-02-03T06:58:51;27.65;;;10.02;;
77078;SDS011;66004;55.096;38.760;2023-02-03T07:01:16;26.80;;;10.48;;
77078;SDS011;66004;55.096;38.760;2023-02-03T07:03:42;27.13;;;9.60;;
77078;SDS011;66004;55.096;38.760;2023-02-03T07:06:08;28.45;;;10.90;;
77078;SDS011;66004;55.096;38.760;2023-02-03T07:08:33;28.63;;;11.10;;
77078;SDS011;66004;55.096;38.760;2023-02-03T07:10:59;30.83;;;12.23;;
77078;SDS011;66004;55.096;38.760;2023-02-03T07:13:25;30.58;;;11.70;;
77078;SDS011;66004;55.096;38.760;2023-02-03T07:15:50;34.63;;;13.57;;
77078;SDS011;66004;55.096;38.760;2023-02-03T07:18:16;30.15;;;11.93;;
77078;SDS011;66004;55.096;38.760;2023-02-03T07:20:43;29.70;;;12.27;;
77078;SDS011;66004;55.096;38.760;2023-02-03T07:23:08;31.08;;;12.05;;
77078;SDS011;66004;55.096;38.760;2023-02-03T07:25:34;32.70;;;12.43;;
77078;SDS011;66004;55.096;38.760;2023-02-03T07:27:59;33.20;;;11.88;;
77078;SDS011;66004;55.096;38.760;2023-02-03T07:30:25;31.48;;;12.43;;
77078;SDS011;66004;55.096;38.760;2023-02-03T07:32:51;30.20;;;11.70;;
77078;SDS011;66004;55.096;38.760;2023-02-03T07:35:17;36.72;;;12.75;;
77078;SDS011;66004;55.096;38.760;2023-02-03T07:37:43;37.47;;;13.45;;
77078;SDS011;66004;55.096;38.760;2023-02-03T07:40:10;33.05;;;12.57;;
77078;SDS011;66004;55.096;38.760;2023-02-03T07:42:40;28.02;;;10.98;;
77078;SDS011;66004;55.096;38.760;2023-02-03T07:45:07;34.10;;;11.98;;
77078;SDS011;66004;55.096;38.760;2023-02-03T07:47:34;32.17;;;11.45;;
77078;SDS011;66004;55.096;38.760;2023-02-03T07:50:00;34.08;;;12.15;;
77078;SDS011;66004;55.096;38.760;2023-02-03T07:52:25;32.35;;;12.05;;
77078;SDS011;66004;55.096;38.760;2023-02-03T07:54:51;31.77;;;12.18;;
77078;SDS011;66004;55.096;38.760;2023-02-03T07:57:16;30.70;;;11.95;;
77078;SDS011;66004;55.096;38.760;2023-02-03T07:59:42;31.92;;;11.90;;
77078;SDS011;66004;55.096;38.760;2023-02-03T08:02:08;32.63;;;12.10;;
77078;SDS011;66004;55.096;38.760;2023-02-03T08:04:35;31.92;;;12.15;;
77078;SDS011;66004;55.096;38.760;2023-02-03T08:07:01;33.85;;;12.27;;
77078;SDS011;66004;55.096;38.760;2023-02-03T08:09:28;35.90;;;12.40;;
77078;SDS011;66004;55.096;38.760;2023-02-03T08:11:53;28.85;;;10.68;;
77078;SDS011;66004;55.096;38.760;2023-02-03T08:14:19;33.65;;;11.75;;
77078;SDS011;66004;55.096;38.760;2023-02-03T08:16:44;33.83;;;12.68;;
77078;SDS011;66004;55.096;38.760;2023-02-03T08:19:10;32.35;;;12.82;;
77078;SDS011;66004;55.096;38.760;2023-02-03T08:21:36;32.45;;;12.35;;
77078;SDS011;66004;55.096;38.760;2023-02-03T08:24:01;34.42;;;12.82;;
77078;SDS011;66004;55.096;38.760;2023-02-03T08:26:27;31.73;;;12.90;;
77078;SDS011;66004;55.096;38.760;2023-02-03T08:28:52;34.53;;;12.93;;
77078;SDS011;66004;55.096;38.760;2023-02-03T08:31:18;33.22;;;12.73;;
77078;SDS011;66004;55.096;38.760;2023-02-03T08:33:44;35.75;;;12.02;;
77078;SDS011;66004;55.096;38.760;2023-02-03T08:36:09;33.35;;;12.02;;
77078;SDS011;66004;55.096;38.760;2023-02-03T08:38:38;36.70;;;13.50;;
77078;SDS011;66004;55.096;38.760;2023-02-03T08:41:12;34.05;;;11.30;;
77078;SDS011;66004;55.096;38.760;2023-02-03T08:43:40;37.50;;;12.30;;
77078;SDS011;66004;55.096;38.760;2023-02-03T08:46:07;32.72;;;11.73;;
77078;SDS011;66004;55.096;38.760;2023-02-03T08:48:34;36.90;;;11.77;;
77078;SDS011;66004;55.096;38.760;2023-02-03T09:26:43;33.95;;;13.05;;
77078;SDS011;66004;55.096;38.760;2023-02-03T09:31:34;35.53;;;12.57;;
77078;SDS011;66004;55.096;38.760;2023-02-03T09:34:00;35.53;;;12.50;;
77078;SDS011;66004;55.096;38.760;2023-02-03T09:36:26;33.33;;;14.10;;
77078;SDS011;66004;55.096;38.760;2023-02-03T09:38:51;38.92;;;13.80;;
77078;SDS011;66004;55.096;38.760;2023-02-03T09:46:47;37.92;;;13.18;;
77078;SDS011;66004;55.096;38.760;2023-02-03T09:52:01;29.00;;;12.13;;
77078;SDS011;66004;55.096;38.760;2023-02-03T09:57:27;35.67;;;13.30;;
77078;SDS011;66004;55.096;38.760;2023-02-03T10:00:02;29.85;;;12.88;;
77078;SDS011;66004;55.096;38.760;2023-02-03T10:02:59;32.80;;;11.75;;
77078;SDS011;66004;55.096;38.760;2023-02-03T10:18:55;29.58;;;10.80;;
77078;SDS011;66004;55.096;38.760;2023-02-03T10:21:37;26.33;;;11.43;;
77078;SDS011;66004;55.096;38.760;2023-02-03T10:24:12;29.38;;;11.30;;
77078;SDS011;66004;55.096;38.760;2023-02-03T10:26:41;30.20;;;11.18;;
77078;SDS011;66004;55.096;38.760;2023-02-03T10:29:17;25.60;;;10.63;;
77078;SDS011;66004;55.096;38.760;2023-02-03T10:32:00;32.35;;;11.85;;
77078;SDS011;66004;55.096;38.760;2023-02-03T10:34:26;33.28;;;11.57;;
77078;SDS011;66004;55.096;38.760;2023-02-03T10:39:44;29.77;;;10.38;;
77078;SDS011;66004;55.096;38.760;2023-02-03T10:42:11;28.83;;;11.50;;
77078;SDS011;66004;55.096;38.760;2023-02-03T10:49:46;28.75;;;11.05;;
77078;SDS011;66004;55.096;38.760;2023-02-03T10:52:25;30.30;;;12.32;;
77078;SDS011;66004;55.096;38.760;2023-02-03T10:55:04;27.02;;;11.00;;
77078;SDS011;66004;55.096;38.760;2023-02-03T10:57:33;26.20;;;10.00;;
77078;SDS011;66004;55.096;38.760;2023-02-03T11:02:57;27.00;;;11.13;;
77078;SDS011;66004;55.096;38.760;2023-02-03T11:05:40;23.42;;;10.10;;
77078;SDS011;66004;55.096;38.760;2023-02-03T11:08:14;28.23;;;10.95;;
77078;SDS011;66004;55.096;38.760;2023-02-03T11:10:40;29.98;;;11.23;;
77078;SDS011;66004;55.096;38.760;2023-02-03T11:15:54;26.67;;;10.07;;
77078;SDS011;66004;55.096;38.760;2023-02-03T11:18:37;29.83;;;10.68;;
77078;SDS011;66004;55.096;38.760;2023-02-03T11:21:29;26.70;;;10.35;;
77078;SDS011;66004;55.096;38.760;2023-02-03T11:24:19;23.75;;;9.57;;
77078;SDS011;66004;55.096;38.760;2023-02-03T11:29:35;31.00;;;10.48;;
77078;SDS011;66004;55.096;38.760;2023-02-03T11:32:04;25.23;;;10.27;;
77078;SDS011;66004;55.096;38.760;2023-02-03T11:34:43;27.00;;;10.77;;
77078;SDS011;66004;55.096;38.760;2023-02-03T11:42:57;29.73;;;10.27;;
77078;SDS011;66004;55.096;38.760;2023-02-03T11:48:00;26.90;;;10.80;;
77078;SDS011;66004;55.096;38.760;2023-02-03T11:50:30;29.20;;;11.35;;
77078;SDS011;66004;55.096;38.760;2023-02-03T11:58:41;26.77;;;10.20;;
77078;SDS011;66004;55.096;38.760;2023-02-03T12:01:17;24.38;;;10.23;;
77078;SDS011;66004;55.096;38.760;2023-02-03T12:12:50;28.23;;;11.85;;
77078;SDS011;66004;55.096;38.760;2023-02-03T12:18:31;23.75;;;10.20;;
77078;SDS011;66004;55.096;38.760;2023-02-03T12:26:49;21.90;;;8.15;;
77078;SDS011;66004;55.096;38.760;2023-02-03T12:29:12;23.92;;;9.25;;
77078;SDS011;66004;55.096;38.760;2023-02-03T12:32:25;24.27;;;9.48;;
77078;SDS011;66004;55.096;38.760;2023-02-03T12:37:49;23.75;;;9.45;;
77078;SDS011;66004;55.096;38.760;2023-02-03T12:40:38;24.92;;;9.93;;
77078;SDS011;66004;55.096;38.760;2023-02-03T12:45:35;24.10;;;9.95;;
77078;SDS011;66004;55.096;38.760;2023-02-03T12:48:04;20.02;;;8.93;;
77078;SDS011;66004;55.096;38.760;2023-02-03T12:50:51;21.25;;;8.82;;
77078;SDS011;66004;55.096;38.760;2023-02-03T12:53:23;23.08;;;10.00;;
77078;SDS011;66004;55.096;38.760;2023-02-03T12:56:02;22.95;;;9.98;;
77078;SDS011;66004;55.096;38.760;2023-02-03T13:01:04;25.27;;;10.98;;
77078;SDS011;66004;55.096;38.760;2023-02-03T13:06:35;26.08;;;10.57;;
77078;SDS011;66004;55.096;38.760;2023-02-03T13:09:21;21.33;;;8.80;;
77078;SDS011;66004;55.096;38.760;2023-02-03T13:11:59;21.95;;;9.45;;
77078;SDS011;66004;55.096;38.760;2023-02-03T13:17:36;21.77;;;8.93;;
77078;SDS011;66004;55.096;38.760;2023-02-03T13:20:14;21.77;;;8.18;;
77078;SDS011;66004;55.096;38.760;2023-02-03T13:22:44;23.05;;;9.13;;
77078;SDS011;66004;55.096;38.760;2023-02-03T13:33:59;18.67;;;9.07;;
77078;SDS011;66004;55.096;38.760;2023-02-03T13:44:54;19.30;;;8.65;;
77078;SDS011;66004;55.096;38.760;2023-02-03T13:47:27;20.15;;;8.23;;
77078;SDS011;66004;55.096;38.760;2023-02-03T13:49:57;16.85;;;8.25;;
77078;SDS011;66004;55.096;38.760;2023-02-03T13:54:58;15.52;;;7.70;;
77078;SDS011;66004;55.096;38.760;2023-02-03T13:57:32;17.15;;;7.97;;
77078;SDS011;66004;55.096;38.760;2023-02-03T14:00:00;17.55;;;8.10;;
77078;SDS011;66004;55.096;38.760;2023-02-03T14:04:57;17.95;;;7.50;;
77078;SDS011;66004;55.096;38.760;2023-02-03T14:07:28;15.32;;;7.28;;
77078;SDS011;66004;55.096;38.760;2023-02-03T14:15:22;19.33;;;8.25;;
77078;SDS011;66004;55.096;38.760;2023-02-03T14:25:32;19.88;;;7.88;;
77078;SDS011;66004;55.096;38.760;2023-02-03T14:28:04;17.42;;;7.70;;
77078;SDS011;66004;55.096;38.760;2023-02-03T14:30:59;14.70;;;7.82;;
77078;SDS011;66004;55.096;38.760;2023-02-03T14:33:43;16.30;;;6.95;;
77078;SDS011;66004;55.096;38.760;2023-02-03T14:38:57;14.80;;;7.00;;
77078;SDS011;66004;55.096;38.760;2023-02-03T14:41:36;17.75;;;7.80;;
77078;SDS011;66004;55.096;38.760;2023-02-03T14:47:25;16.20;;;7.03;;
77078;SDS011;66004;55.096;38.760;2023-02-03T14:53:26;18.90;;;8.27;;
77078;SDS011;66004;55.096;38.760;2023-02-03T14:58:46;17.33;;;7.95;;
77078;SDS011;66004;55.096;38.760;2023-02-03T15:01:26;18.20;;;7.68;;
77078;SDS011;66004;55.096;38.760;2023-02-03T15:11:48;23.08;;;9.18;;
77078;SDS011;66004;55.096;38.760;2023-02-03T15:14:21;17.95;;;8.38;;
77078;SDS011;66004;55.096;38.760;2023-02-03T15:16:53;17.63;;;7.60;;
77078;SDS011;66004;55.096;38.760;2023-02-03T15:19:22;21.13;;;7.60;;
77078;SDS011;66004;55.096;38.760;2023-02-03T15:21:50;18.83;;;7.65;;
77078;SDS011;66004;55.096;38.760;2023-02-03T15:24:17;17.58;;;7.97;;
77078;SDS011;66004;55.096;38.760;2023-02-03T15:26:51;20.08;;;9.00;;
77078;SDS011;66004;55.096;38.760;2023-02-03T15:29:22;17.55;;;7.85;;
77078;SDS011;66004;55.096;38.760;2023-02-03T15:31:52;17.50;;;8.68;;
77078;SDS011;66004;55.096;38.760;2023-02-03T15:34:31;18.40;;;7.88;;
77078;SDS011;66004;55.096;38.760;2023-02-03T15:37:03;16.35;;;7.82;;
77078;SDS011;66004;55.096;38.760;2023-02-03T15:42:19;18.95;;;8.57;;
77078;SDS011;66004;55.096;38.760;2023-02-03T15:45:05;18.20;;;8.40;;
77078;SDS011;66004;55.096;38.760;2023-02-03T15:47:44;18.90;;;8.70;;
77078;SDS011;66004;55.096;38.760;2023-02-03T15:53:16;18.63;;;8.88;;
77078;SDS011;66004;55.096;38.760;2023-02-03T15:55:46;20.35;;;9.27;;
77078;SDS011;66004;55.096;38.760;2023-02-03T15:58:18;17.08;;;8.80;;
77078;SDS011;66004;55.096;38.760;2023-02-03T16:00:51;22.25;;;8.70;;
77078;SDS011;66004;55.096;38.760;2023-02-03T16:03:41;22.98;;;9.65;;
77078;SDS011;66004;55.096;38.760;2023-02-03T16:08:42;24.25;;;10.50;;
77078;SDS011;66004;55.096;38.760;2023-02-03T16:14:07;21.92;;;9.80;;
77078;SDS011;66004;55.096;38.760;2023-02-03T16:16:39;23.90;;;10.15;;
77078;SDS011;66004;55.096;38.760;2023-02-03T16:19:11;21.90;;;9.68;;
77078;SDS011;66004;55.096;38.760;2023-02-03T16:24:34;25.98;;;9.98;;
77078;SDS011;66004;55.096;38.760;2023-02-03T16:27:53;20.02;;;10.02;;
77078;SDS011;66004;55.096;38.760;2023-02-03T16:30:33;23.38;;;9.18;;
77078;SDS011;66004;55.096;38.760;2023-02-03T16:35:54;23.10;;;10.18;;
77078;SDS011;66004;55.096;38.760;2023-02-03T16:38:49;21.83;;;10.23;;
77078;SDS011;66004;55.096;38.760;2023-02-03T16:41:33;28.52;;;10.93;;
77078;SDS011;66004;55.096;38.760;2023-02-03T16:44:20;22.80;;;9.57;;
77078;SDS011;66004;55.096;38.760;2023-02-03T16:47:14;23.23;;;9.63;;
77078;SDS011;66004;55.096;38.760;2023-02-03T16:50:05;28.00;;;9.85;;
77078;SDS011;66004;55.096;38.760;2023-02-03T16:52:51;24.00;;;9.88;;
77078;SDS011;66004;55.096;38.760;2023-02-03T16:55:17;26.50;;;10.65;;
77078;SDS011;66004;55.096;38.760;2023-02-03T16:57:42;23.85;;;10.63;;
77078;SDS011;66004;55.096;38.760;2023-02-03T17:00:10;26.88;;;10.48;;
77078;SDS011;66004;55.096;38.760;2023-02-03T17:02:37;19.05;;;9.40;;
77078;SDS011;66004;55.096;38.760;2023-02-03T17:05:02;22.92;;;10.65;;
77078;SDS011;66004;55.096;38.760;2023-02-03T17:07:28;26.02;;;10.80;;
77078;SDS011;66004;55.096;38.760;2023-02-03T17:09:54;24.27;;;10.35;;
77078;SDS011;66004;55.096;38.760;2023-02-03T17:12:19;25.38;;;10.80;;
77078;SDS011;66004;55.096;38.760;2023-02-03T17:14:45;22.63;;;10.38;;
77078;SDS011;66004;55.096;38.760;2023-02-03T17:17:10;26.60;;;10.68;;
77078;SDS011;66004;55.096;38.760;2023-02-03T17:19:36;26.08;;;11.68;;
77078;SDS011;66004;55.096;38.760;2023-02-03T17:22:01;23.13;;;10.30;;
77078;SDS011;66004;55.096;38.760;2023-02-03T17:24:27;25.10;;;11.27;;
77078;SDS011;66004;55.096;38.760;2023-02-03T17:26:52;27.02;;;11.90;;
77078;SDS011;66004;55.096;38.760;2023-02-03T17:29:18;25.98;;;9.75;;
77078;SDS011;66004;55.096;38.760;2023-02-03T17:31:44;27.10;;;11.48;;
77078;SDS011;66004;55.096;38.760;2023-02-03T17:34:09;26.30;;;11.32;;
77078;SDS011;66004;55.096;38.760;2023-02-03T17:36:35;25.30;;;10.82;;
77078;SDS011;66004;55.096;38.760;2023-02-03T17:39:00;25.77;;;11.55;;
77078;SDS011;66004;55.096;38.760;2023-02-03T17:41:26;34.38;;;15.45;;
77078;SDS011;66004;55.096;38.760;2023-02-03T17:43:52;26.05;;;11.00;;
77078;SDS011;66004;55.096;38.760;2023-02-03T17:46:19;22.73;;;11.07;;
77078;SDS011;66004;55.096;38.760;2023-02-03T17:48:46;27.30;;;11.57;;
77078;SDS011;66004;55.096;38.760;2023-02-03T17:51:19;28.45;;;12.20;;
77078;SDS011;66004;55.096;38.760;2023-02-03T17:53:46;27.63;;;11.70;;
77078;SDS011;66004;55.096;38.760;2023-02-03T17:58:39;22.80;;;10.20;;
77078;SDS011;66004;55.096;38.760;2023-02-03T18:01:09;24.02;;;11.07;;
77078;SDS011;66004;55.096;38.760;2023-02-03T18:03:46;25.02;;;11.35;;
77078;SDS011;66004;55.096;38.760;2023-02-03T18:06:16;25.85;;;11.18;;
77078;SDS011;66004;55.096;38.760;2023-02-03T18:08:44;22.98;;;9.30;;
77078;SDS011;66004;55.096;38.760;2023-02-03T18:11:11;24.98;;;10.55;;
77078;SDS011;66004;55.096;38.760;2023-02-03T18:13:38;27.98;;;10.70;;
77078;SDS011;66004;55.096;38.760;2023-02-03T18:16:07;22.42;;;11.30;;
77078;SDS011;66004;55.096;38.760;2023-02-03T18:18:34;25.52;;;11.32;;
77078;SDS011;66004;55.096;38.760;2023-02-03T18:21:03;29.63;;;11.77;;
77078;SDS011;66004;55.096;38.760;2023-02-03T18:23:30;25.90;;;11.30;;
77078;SDS011;66004;55.096;38.760;2023-02-03T18:25:56;25.08;;;10.82;;
77078;SDS011;66004;55.096;38.760;2023-02-03T18:28:21;24.30;;;11.15;;
77078;SDS011;66004;55.096;38.760;2023-02-03T18:30:48;26.75;;;11.80;;
77078;SDS011;66004;55.096;38.760;2023-02-03T18:33:15;25.60;;;10.80;;